createdAt,value
2022-12-04T00:00:54.437Z,95702.84
2022-12-04T00:03:27.311Z,95700.97
2022-12-04T00:06:07.437Z,95712.03
2022-12-04T00:08:41.072Z,95711.88
2022-12-04T00:11:15.772Z,95703.91
2022-12-04T00:13:50.840Z,95710.00
2022-12-04T00:16:25.664Z,95710.31
2022-12-04T00:18:59.360Z,95703.91
2022-12-04T00:21:32.617Z,95704.69
2022-12-04T00:24:06.612Z,95709.69
2022-12-04T00:26:39.666Z,95701.25
2022-12-04T00:29:13.870Z,95704.41
2022-12-04T00:31:46.899Z,95704.69
2022-12-04T00:34:20.163Z,95705.19
2022-12-04T00:36:52.901Z,95699.56
2022-12-04T00:39:26.046Z,95702.22
2022-12-04T00:41:58.841Z,95707.03
2022-12-04T00:44:33.054Z,95704.09
2022-12-04T00:47:05.960Z,95710.47
2022-12-04T00:49:38.929Z,95720.63
2022-12-04T00:52:11.691Z,95716.09
2022-12-04T00:54:44.485Z,95722.19
2022-12-04T00:57:17.698Z,95713.75
2022-12-04T00:59:52.313Z,95700.19
2022-12-04T01:02:25.308Z,95718.13
2022-12-04T01:04:58.139Z,95702.53
2022-12-04T01:07:30.940Z,95715.19
2022-12-04T01:10:04.545Z,95707.22
2022-12-04T01:12:37.490Z,95715.97
2022-12-04T01:15:12.467Z,95716.88
2022-12-04T01:17:45.481Z,95714.22
2022-12-04T01:20:18.774Z,95707.81
2022-12-04T01:22:51.584Z,95701.75
2022-12-04T01:25:24.396Z,95701.75
2022-12-04T01:27:57.291Z,95697.22
2022-12-04T01:30:31.632Z,95692.53
2022-12-04T01:33:04.571Z,95703.78
2022-12-04T01:35:37.374Z,95699.09
2022-12-04T01:38:10.168Z,95701.25
2022-12-04T01:40:45.152Z,95691.28
2022-12-04T01:43:18.793Z,95696.44
2022-12-04T01:45:55.085Z,95697.22
2022-12-04T01:48:31.922Z,95705.00
2022-12-04T01:51:09.629Z,95703.13
2022-12-04T01:53:45.452Z,95704.25
2022-12-04T01:56:19.932Z,95706.44
2022-12-04T01:58:55.681Z,95707.22
2022-12-04T02:01:35.902Z,95707.84
2022-12-04T02:04:08.746Z,95697.06
2022-12-04T02:06:41.552Z,95695.03
2022-12-04T02:09:14.382Z,95707.53
2022-12-04T02:11:54.081Z,95690.34
2022-12-04T02:14:32.673Z,95685.69
2022-12-04T02:17:16.484Z,95682.25
2022-12-04T02:20:23.841Z,95674.44
2022-12-04T02:23:26.219Z,95673.16
2022-12-04T02:26:06.481Z,95673.81
2022-12-04T02:28:49.957Z,95679.72
2022-12-04T02:31:31.718Z,95677.38
2022-12-04T02:34:09.823Z,95687.53
2022-12-04T02:36:49.112Z,95696.59
2022-12-04T02:39:27.065Z,95691.88
2022-12-04T02:42:06.716Z,95686.88
2022-12-04T02:44:45.283Z,95698.59
2022-12-04T02:47:23.338Z,95709.03
2022-12-04T02:49:59.645Z,95705.13
2022-12-04T02:52:35.506Z,95702.00
2022-12-04T02:55:14.996Z,95702.00
2022-12-04T02:57:52.290Z,95704.66
2022-12-04T03:00:27.227Z,95694.81
2022-12-04T03:03:03.954Z,95703.25
2022-12-04T03:05:42.806Z,95701.88
2022-12-04T03:08:21.311Z,95704.97
2022-12-04T03:10:58.848Z,95693.59
2022-12-04T03:13:36.236Z,95696.72
2022-12-04T03:16:14.535Z,95703.59
2022-12-04T03:18:52.203Z,95694.06
2022-12-04T03:21:29.372Z,95687.53
2022-12-04T03:24:10.041Z,95685.63
2022-12-04T03:26:47.872Z,95680.66
2022-12-04T03:29:23.867Z,95686.25
2022-12-04T03:32:05.400Z,95677.06
2022-12-04T03:34:45.115Z,95676.13
2022-12-04T03:37:21.655Z,95676.44
2022-12-04T03:39:59.917Z,95683.13
2022-12-04T03:42:38.957Z,95672.81
2022-12-04T03:45:18.720Z,95677.97
2022-12-04T03:47:58.081Z,95683.28
2022-12-04T03:50:36.631Z,95679.06
2022-12-04T03:53:17.443Z,95683.59
2022-12-04T03:55:55.498Z,95684.38
2022-12-04T03:58:33.131Z,95690.44
2022-12-04T04:01:11.314Z,95674.84
2022-12-04T04:03:49.255Z,95683.59
2022-12-04T04:06:25.855Z,95682.81
2022-12-04T04:09:03.804Z,95688.56
2022-12-04T04:11:44.347Z,95687.00
2022-12-04T04:14:39.901Z,95689.66
2022-12-04T04:17:38.256Z,95671.41
2022-12-04T04:20:35.326Z,95675.16
2022-12-04T04:23:29.299Z,95665.16
2022-12-04T04:26:04.103Z,95675.59
2022-12-04T04:28:39.525Z,95682.78
2022-12-04T04:31:23.600Z,95676.69
2022-12-04T04:34:06.702Z,95671.22
2022-12-04T04:36:51.791Z,95673.41
2022-12-04T04:39:32.595Z,95668.72
2022-12-04T04:42:16.185Z,95666.06
2022-12-04T04:44:54.124Z,95669.31
2022-12-04T04:47:33.782Z,95675.25
2022-12-04T04:50:09.807Z,95679.94
2022-12-04T04:52:48.234Z,95671.53
2022-12-04T04:55:22.085Z,95668.88
2022-12-04T04:57:55.313Z,95670.75
2022-12-04T05:00:28.539Z,95673.53
2022-12-04T05:03:01.380Z,95666.38
2022-12-04T05:05:34.199Z,95671.84
2022-12-04T05:08:08.999Z,95671.56
2022-12-04T05:10:41.778Z,95666.56
2022-12-04T05:13:15.229Z,95663.13
2022-12-04T05:15:57.975Z,95670.78
2022-12-04T05:18:31.649Z,95675.59
2022-12-04T05:21:05.640Z,95671.06
2022-12-04T05:23:39.760Z,95678.53
2022-12-04T05:26:12.604Z,95675.59
2022-12-04T05:28:45.536Z,95674.50
2022-12-04T05:31:18.531Z,95670.78
2022-12-04T05:33:51.341Z,95675.28
2022-12-04T05:36:24.086Z,95673.88
2022-12-04T05:38:58.270Z,95672.00
2022-12-04T05:41:31.075Z,95669.34
2022-12-04T05:44:04.152Z,95671.69
2022-12-04T05:46:37.010Z,95675.59
2022-12-04T05:49:09.843Z,95677.47
2022-12-04T05:51:42.599Z,95688.84
2022-12-04T05:54:16.938Z,95696.03
2022-12-04T05:56:49.773Z,95697.91
2022-12-04T05:59:22.597Z,95688.38
2022-12-04T06:01:55.658Z,95682.28
2022-12-04T06:04:28.660Z,95692.13
2022-12-04T06:07:01.856Z,95690.72
2022-12-04T06:09:36.185Z,95689.94
2022-12-04T06:12:08.956Z,95692.59
2022-12-04T06:14:41.787Z,95693.06
2022-12-04T06:17:14.558Z,95696.97
2022-12-04T06:19:47.423Z,95700.09
2022-12-04T06:22:20.749Z,95687.63
2022-12-04T06:24:54.932Z,95691.84
2022-12-04T06:27:28.683Z,95697.13
2022-12-04T06:30:01.997Z,95697.91
2022-12-04T06:32:34.791Z,95685.44
2022-12-04T06:35:08.075Z,95694.19
2022-12-04T06:37:40.822Z,95692.78
2022-12-04T06:40:16.465Z,95683.13
2022-12-04T06:42:49.399Z,95679.88
2022-12-04T06:45:22.287Z,95699.34
2022-12-04T06:47:55.093Z,95703.25
2022-12-04T06:50:27.872Z,95699.22
2022-12-04T06:53:05.004Z,95693.59
2022-12-04T06:55:48.817Z,95698.28
2022-12-04T06:58:21.602Z,95684.72
2022-12-04T07:00:54.825Z,95701.09
2022-12-04T07:03:27.981Z,95711.84
2022-12-04T07:06:00.827Z,95717.16
2022-12-04T07:08:33.903Z,95716.53
2022-12-04T07:11:08.264Z,95713.59
2022-12-04T07:13:41.799Z,95714.38
2022-12-04T07:16:17.095Z,95716.72
2022-12-04T07:18:50.566Z,95719.81
2022-12-04T07:21:25.407Z,95723.13
2022-12-04T07:24:00.774Z,95720.91
2022-12-04T07:26:35.152Z,95717.97
2022-12-04T07:29:08.013Z,95719.84
2022-12-04T07:31:40.964Z,95725.13
2022-12-04T07:34:13.807Z,95715.78
2022-12-04T07:36:46.605Z,95710.00
2022-12-04T07:39:19.421Z,95721.41
2022-12-04T07:41:53.604Z,95720.63
2022-12-04T07:44:26.477Z,95722.19
2022-12-04T07:46:59.369Z,95732.00
2022-12-04T07:49:32.194Z,95716.09
2022-12-04T07:52:05.824Z,95713.13
2022-12-04T07:54:38.621Z,95717.34
2022-12-04T07:57:12.845Z,95714.38
2022-12-04T07:59:45.670Z,95715.47
2022-12-04T08:02:18.558Z,95712.03
2022-12-04T08:04:51.633Z,95715.47
2022-12-04T08:07:24.527Z,95713.59
2022-12-04T08:09:57.602Z,95712.34
2022-12-04T08:12:32.792Z,95720.31
2022-12-04T08:15:06.896Z,95724.06
2022-12-04T08:17:39.680Z,95720.47
2022-12-04T08:20:13.237Z,95720.16
2022-12-04T08:22:46.036Z,95718.59
2022-12-04T08:25:18.921Z,95727.78
2022-12-04T08:27:53.134Z,95735.75
2022-12-04T08:30:25.887Z,95741.84
2022-12-04T08:32:59.024Z,95740.75
2022-12-04T08:35:31.816Z,95735.44
2022-12-04T08:38:04.681Z,95729.84
2022-12-04T08:40:37.478Z,95727.66
2022-12-04T08:43:11.876Z,95732.78
2022-12-04T08:45:44.677Z,95736.22
2022-12-04T08:48:17.554Z,95725.31
2022-12-04T08:50:50.319Z,95712.81
2022-12-04T08:53:23.686Z,95718.13
2022-12-04T08:55:56.493Z,95719.69
2022-12-04T08:58:31.121Z,95725.47
2022-12-04T09:01:08.163Z,95726.56
2022-12-04T09:03:41.632Z,95732.97
2022-12-04T09:06:16.102Z,95734.06
2022-12-04T09:08:49.115Z,95737.31
2022-12-04T09:11:23.684Z,95741.53
2022-12-04T09:13:57.855Z,95746.84
2022-12-04T09:16:31.041Z,95754.66
2022-12-04T09:19:04.357Z,95759.97
2022-12-04T09:21:37.164Z,95761.50
2022-12-04T09:24:10.006Z,95760.72
2022-12-04T09:26:43.181Z,95760.41
2022-12-04T09:29:17.484Z,95755.28
2022-12-04T09:31:50.267Z,95759.50
2022-12-04T09:34:23.130Z,95744.38
2022-12-04T09:36:55.934Z,95738.75
2022-12-04T09:39:28.744Z,95729.22
2022-12-04T09:42:19.442Z,95742.63
2022-12-04T09:44:59.134Z,95743.28
2022-12-04T09:47:36.284Z,95748.88
2022-12-04T09:50:16.201Z,95762.16
2022-12-04T09:52:56.501Z,95757.94
2022-12-04T09:55:34.043Z,95755.59
2022-12-04T09:58:11.886Z,95755.59
2022-12-04T10:00:51.165Z,95757.16
2022-12-04T10:03:28.164Z,95748.72
2022-12-04T10:06:09.074Z,95755.88
2022-12-04T10:08:44.672Z,95762.28
2022-12-04T10:11:30.716Z,95753.88
2022-12-04T10:14:29.453Z,95743.41
2022-12-04T10:17:32.723Z,95732.78
2022-12-04T10:20:18.566Z,95731.09
2022-12-04T10:23:00.594Z,95714.88
2022-12-04T10:25:36.147Z,95700.19
2022-12-04T10:28:19.410Z,95691.91
2022-12-04T10:30:55.194Z,95687.06
2022-12-04T10:33:35.032Z,95670.84
2022-12-04T10:36:14.091Z,95659.91
2022-12-04T10:38:50.641Z,95660.69
2022-12-04T10:41:28.283Z,95660.69
2022-12-04T10:44:01.672Z,95665.97
2022-12-04T10:46:36.043Z,95675.50
2022-12-04T10:49:21.061Z,95707.03
2022-12-04T10:51:56.121Z,95713.75
2022-12-04T10:54:34.441Z,95710.78
2022-12-04T10:57:09.437Z,95716.75
2022-12-04T10:59:50.779Z,95709.22
2022-12-04T11:02:26.992Z,95720.47
2022-12-04T11:05:05.051Z,95725.16
2022-12-04T11:07:46.168Z,95717.19
2022-12-04T11:10:22.680Z,95705.00
2022-12-04T11:12:56.294Z,95708.44
2022-12-04T11:15:30.454Z,95712.97
2022-12-04T11:18:10.934Z,95700.47
2022-12-04T11:20:52.044Z,95692.53
2022-12-04T11:23:26.132Z,95705.47
2022-12-04T11:26:05.927Z,95698.16
2022-12-04T11:28:42.748Z,95680.03
2022-12-04T11:31:19.866Z,95682.22
2022-12-04T11:33:56.010Z,95662.69
2022-12-04T11:36:32.993Z,95678.13
2022-12-04T11:39:08.422Z,95673.75
2022-12-04T11:41:41.542Z,95671.72
2022-12-04T11:44:26.146Z,95678.09
2022-12-04T11:47:02.011Z,95671.84
2022-12-04T11:49:36.554Z,95664.03
2022-12-04T11:52:30.500Z,95669.31
2022-12-04T11:55:10.181Z,95654.63
2022-12-04T11:57:58.452Z,95652.91
2022-12-04T12:00:33.423Z,95651.94
2022-12-04T12:03:34.881Z,95644.09
2022-12-04T12:06:27.427Z,95652.66
2022-12-04T12:09:15.901Z,95660.81
2022-12-04T12:11:56.306Z,95654.81
2022-12-04T12:14:35.894Z,95655.59
2022-12-04T12:17:15.995Z,95652.00
2022-12-04T12:20:14.969Z,95664.63
2022-12-04T12:23:07.511Z,95661.81
2022-12-04T12:25:52.279Z,95652.09
2022-12-04T12:28:40.574Z,95656.47
2022-12-04T12:31:35.647Z,95653.91
2022-12-04T12:34:12.548Z,95662.81
2022-12-04T12:36:50.635Z,95659.53
2022-12-04T12:39:27.587Z,95661.53
2022-12-04T12:42:02.674Z,95660.91
2022-12-04T12:44:44.578Z,95667.00
2022-12-04T12:47:19.669Z,95667.31
2022-12-04T12:50:00.188Z,95670.44
2022-12-04T12:52:39.476Z,95668.88
2022-12-04T12:55:18.048Z,95664.19
2022-12-04T12:58:00.457Z,95661.06
2022-12-04T13:00:53.573Z,95669.03
2022-12-04T13:03:34.518Z,95672.06
2022-12-04T13:06:13.159Z,95661.72
2022-12-04T13:08:56.402Z,95658.41
2022-12-04T13:11:30.487Z,95654.97
2022-12-04T13:14:06.112Z,95659.34
2022-12-04T13:16:43.150Z,95651.34
2022-12-04T13:19:27.308Z,95655.25
2022-12-04T13:22:16.948Z,95647.72
2022-12-04T13:25:15.795Z,95646.78
2022-12-04T13:28:00.096Z,95635.34
2022-12-04T13:30:45.467Z,95635.81
2022-12-04T13:33:48.788Z,95629.06
2022-12-04T13:36:39.757Z,95637.06
2022-12-04T13:39:32.562Z,95632.97
2022-12-04T13:42:36.244Z,95639.09
2022-12-04T13:45:25.136Z,95636.88
2022-12-04T13:48:00.797Z,95631.69
2022-12-04T13:50:35.075Z,95632.91
2022-12-04T13:53:23.257Z,95635.72
2022-12-04T13:55:58.610Z,95639.28
2022-12-04T13:58:35.760Z,95636.31
2022-12-04T14:01:26.015Z,95647.88
2022-12-04T14:04:00.512Z,95637.66
2022-12-04T14:06:39.664Z,95646.56
2022-12-04T14:09:23.028Z,95649.69
2022-12-04T14:12:07.083Z,95647.81
2022-12-04T14:14:44.617Z,95653.44
2022-12-04T14:17:22.943Z,95655.97
2022-12-04T14:20:04.258Z,95652.06
2022-12-04T14:22:43.916Z,95650.84
2022-12-04T14:25:34.732Z,95651.16
2022-12-04T14:28:16.189Z,95646.16
2022-12-04T14:31:04.750Z,95635.06
2022-12-04T14:33:43.595Z,95646.78
2022-12-04T14:36:26.628Z,95636.63
2022-12-04T14:39:11.573Z,95632.53
2022-12-04T14:41:45.551Z,95638.50
2022-12-04T14:44:27.492Z,95644.28
2022-12-04T14:47:03.912Z,95642.25
2022-12-04T14:49:47.548Z,95644.91
2022-12-04T14:52:28.394Z,95652.00
2022-12-04T14:55:11.195Z,95649.88
2022-12-04T14:57:50.456Z,95653.47
2022-12-04T15:00:24.592Z,95656.00
2022-12-04T15:03:00.906Z,95653.19
2022-12-04T15:05:34.233Z,95646.63
2022-12-04T15:08:08.748Z,95633.66
2022-12-04T15:10:59.451Z,95643.19
2022-12-04T15:13:34.541Z,95646.63
2022-12-04T15:16:11.126Z,95648.97
2022-12-04T15:18:54.315Z,95646.78
2022-12-04T15:21:35.698Z,95646.78
2022-12-04T15:24:12.331Z,95645.22
2022-12-04T15:26:47.133Z,95648.66
2022-12-04T15:29:24.036Z,95637.38
2022-12-04T15:32:01.316Z,95634.72
2022-12-04T15:34:38.989Z,95647.22
2022-12-04T15:37:19.207Z,95643.34
2022-12-04T15:39:54.471Z,95648.50
2022-12-04T15:42:30.250Z,95647.28
2022-12-04T15:45:23.095Z,95641.50
2022-12-04T15:47:57.252Z,95647.13
2022-12-04T15:50:31.284Z,95645.13
2022-12-04T15:53:09.755Z,95647.78
2022-12-04T15:55:51.906Z,95650.78
2022-12-04T15:58:27.863Z,95648.91
2022-12-04T16:01:03.105Z,95652.97
2022-12-04T16:03:41.022Z,95661.41
2022-12-04T16:06:19.090Z,95659.84
2022-12-04T16:08:53.625Z,95655.31
2022-12-04T16:11:34.033Z,95654.53
2022-12-04T16:14:18.151Z,95658.59
2022-12-04T16:16:53.460Z,95657.66
2022-12-04T16:19:31.525Z,95662.56
2022-12-04T16:22:10.420Z,95656.63
2022-12-04T16:24:44.303Z,95646.97
2022-12-04T16:27:22.643Z,95657.13
2022-12-04T16:29:55.451Z,95668.72
2022-12-04T16:32:31.886Z,95680.00
2022-12-04T16:35:04.745Z,95687.38
2022-12-04T16:37:37.655Z,95683.78
2022-12-04T16:40:12.399Z,95685.53
2022-12-04T16:42:46.522Z,95690.38
2022-12-04T16:45:26.159Z,95680.38
2022-12-04T16:47:59.248Z,95673.38
2022-12-04T16:50:32.316Z,95672.91
2022-12-04T16:53:05.173Z,95679.31
2022-12-04T16:55:40.371Z,95659.47
2022-12-04T16:58:15.258Z,95656.38
2022-12-04T17:00:53.245Z,95659.47
2022-12-04T17:03:31.509Z,95664.00
2022-12-04T17:06:04.349Z,95667.44
2022-12-04T17:08:37.126Z,95669.31
2022-12-04T17:11:11.160Z,95684.47
2022-12-04T17:13:45.865Z,95688.25
2022-12-04T17:16:20.044Z,95692.28
2022-12-04T17:18:55.060Z,95699.19
2022-12-04T17:21:27.878Z,95705.25
2022-12-04T17:24:00.809Z,95709.94
2022-12-04T17:26:34.092Z,95714.94
2022-12-04T17:29:08.355Z,95724.94
2022-12-04T17:31:41.195Z,95720.09
2022-12-04T17:34:14.016Z,95728.50
2022-12-04T17:36:46.878Z,95738.81
2022-12-04T17:39:19.864Z,95728.66
2022-12-04T17:41:52.672Z,95725.81
2022-12-04T17:44:26.849Z,95725.97
2022-12-04T17:46:59.671Z,95734.88
2022-12-04T17:49:32.801Z,95737.22
2022-12-04T17:52:05.917Z,95742.69
2022-12-04T17:54:38.772Z,95730.00
2022-12-04T17:57:11.888Z,95737.03
2022-12-04T17:59:46.110Z,95743.56
2022-12-04T18:02:19.394Z,95749.81
2022-12-04T18:04:54.642Z,95751.50
2022-12-04T18:07:27.853Z,95746.97
2022-12-04T18:10:00.981Z,95749.00
2022-12-04T18:12:33.901Z,95752.44
2022-12-04T18:15:09.065Z,95766.97
2022-12-04T18:17:41.878Z,95770.75
2022-12-04T18:20:14.683Z,95775.75
2022-12-04T18:22:47.420Z,95780.28
2022-12-04T18:25:20.390Z,95784.03
2022-12-04T18:27:53.221Z,95781.38
2022-12-04T18:30:27.513Z,95787.16
2022-12-04T18:33:00.273Z,95790.91
2022-12-04T18:35:33.267Z,95794.66
2022-12-04T18:38:06.081Z,95797.31
2022-12-04T18:40:38.970Z,95799.66
2022-12-04T18:43:15.228Z,95799.97
2022-12-04T18:46:01.422Z,95809.19
2022-12-04T18:48:39.075Z,95804.22
2022-12-04T18:51:17.499Z,95794.66
2022-12-04T18:53:51.824Z,95801.53
2022-12-04T18:56:24.615Z,95798.41
2022-12-04T18:58:58.561Z,95808.28
2022-12-04T19:01:33.184Z,95817.50
2022-12-04T19:04:09.394Z,95811.72
2022-12-04T19:06:43.645Z,95816.25
2022-12-04T19:09:20.081Z,95811.25
2022-12-04T19:11:52.984Z,95804.81
2022-12-04T19:14:25.824Z,95808.91
2022-12-04T19:16:59.994Z,95812.81
2022-12-04T19:19:33.085Z,95813.91
2022-12-04T19:22:05.879Z,95825.47
2022-12-04T19:24:38.687Z,95818.28
2022-12-04T19:27:12.128Z,95822.94
2022-12-04T19:29:45.315Z,95830.13
2022-12-04T19:32:22.873Z,95837.50
2022-12-04T19:34:55.683Z,95856.09
2022-12-04T19:37:28.510Z,95851.88
2022-12-04T19:40:01.321Z,95846.25
2022-12-04T19:42:34.182Z,95834.38
2022-12-04T19:45:07.695Z,95839.06
2022-12-04T19:47:42.188Z,95837.50
2022-12-04T19:50:14.959Z,95842.03
2022-12-04T19:52:51.185Z,95837.03
2022-12-04T19:55:30.519Z,95836.72
2022-12-04T19:58:03.496Z,95832.34
2022-12-04T20:00:36.514Z,95847.53
2022-12-04T20:03:12.389Z,95828.91
2022-12-04T20:05:45.163Z,95828.91
2022-12-04T20:08:18.164Z,95829.22
2022-12-04T20:10:51.032Z,95830.00
2022-12-04T20:13:23.856Z,95823.44
2022-12-04T20:15:56.600Z,95818.13
2022-12-04T20:18:31.068Z,95822.34
2022-12-04T20:21:04.945Z,95819.69
2022-12-04T20:23:38.358Z,95823.13
2022-12-04T20:26:14.182Z,95832.66
2022-12-04T20:28:47.739Z,95845.97
2022-12-04T20:31:23.233Z,95847.84
2022-12-04T20:34:01.497Z,95845.66
2022-12-04T20:36:38.003Z,95839.09
2022-12-04T20:39:11.955Z,95838.78
2022-12-04T20:41:45.087Z,95834.53
2022-12-04T20:44:21.253Z,95841.44
2022-12-04T20:46:54.369Z,95825.00
2022-12-04T20:49:28.711Z,95841.75
2022-12-04T20:52:01.460Z,95837.81
2022-12-04T20:54:40.997Z,95848.47
2022-12-04T20:57:13.982Z,95840.00
2022-12-04T20:59:46.762Z,95845.03
2022-12-04T21:02:19.575Z,95857.84
2022-12-04T21:04:54.093Z,95855.19
2022-12-04T21:07:26.919Z,95849.09
2022-12-04T21:10:00.334Z,95861.16
2022-12-04T21:12:51.500Z,95860.06
2022-12-04T21:15:41.668Z,95852.88
2022-12-04T21:18:14.484Z,95849.09
2022-12-04T21:20:48.741Z,95849.09
2022-12-04T21:23:21.550Z,95861.63
2022-12-04T21:25:56.687Z,95874.56
2022-12-04T21:28:31.170Z,95877.25
2022-12-04T21:31:05.349Z,95878.03
2022-12-04T21:33:38.227Z,95882.56
2022-12-04T21:36:12.673Z,95876.16
2022-12-04T21:38:45.415Z,95878.66
2022-12-04T21:41:32.552Z,95864.59
2022-12-04T21:44:05.572Z,95870.22
2022-12-04T21:46:38.474Z,95876.94
2022-12-04T21:49:12.433Z,95895.84
2022-12-04T21:52:02.074Z,95887.75
2022-12-04T21:54:34.940Z,95899.00
2022-12-04T21:57:07.840Z,95904.63
2022-12-04T21:59:40.615Z,95912.91
2022-12-04T22:02:15.029Z,95911.81
2022-12-04T22:04:48.246Z,95916.69
2022-12-04T22:07:22.454Z,95919.00
2022-12-04T22:09:55.516Z,95931.19
2022-12-04T22:15:21.502Z,95937.47
2022-12-04T22:17:54.283Z,95940.59
2022-12-04T22:20:27.220Z,95942.94
2022-12-04T22:23:01.509Z,95939.97
2022-12-04T22:25:34.961Z,95939.97
2022-12-04T22:28:07.765Z,95944.66
2022-12-04T22:30:40.512Z,95962.19
2022-12-04T22:33:13.341Z,95975.16
2022-12-04T22:35:46.112Z,95965.63
2022-12-04T22:38:20.297Z,95961.53
2022-12-04T22:40:53.015Z,95947.44
2022-12-04T22:43:25.804Z,95958.56
2022-12-04T22:45:58.817Z,95986.72
2022-12-04T22:48:33.380Z,95983.28
2022-12-04T22:51:09.659Z,95972.34
2022-12-04T22:53:45.969Z,95992.50
2022-12-04T22:56:21.017Z,95995.94
2022-12-04T22:58:55.181Z,95990.63
2022-12-04T23:01:30.086Z,95994.56
2022-12-04T23:04:04.733Z,95990.31
2022-12-04T23:06:37.562Z,95998.31
2022-12-04T23:09:14.706Z,96013.63
2022-12-04T23:11:51.874Z,96016.28
2022-12-04T23:14:27.029Z,96025.81
2022-12-04T23:16:59.798Z,96032.69
2022-12-04T23:19:32.719Z,96031.63
2022-12-04T23:22:05.821Z,96039.91
2022-12-04T23:24:41.486Z,96040.06
2022-12-04T23:27:14.274Z,96036.16
2022-12-04T23:29:54.229Z,96032.09
2022-12-04T23:32:27.050Z,96035.06
2022-12-04T23:34:59.840Z,96038.50
2022-12-04T23:37:32.614Z,96044.13
2022-12-04T23:40:08.822Z,96042.72
2022-12-04T23:42:41.872Z,96049.75
2022-12-04T23:45:14.692Z,96055.38
2022-12-04T23:47:47.756Z,96064.78
2022-12-04T23:50:20.538Z,96068.84
2022-12-04T23:52:53.312Z,96075.53
2022-12-04T23:55:31.144Z,96062.91
2022-12-04T23:58:07.056Z,96069.59
